createdAt,value
2023-04-15T00:00:00.953Z,976.31
2023-04-15T00:01:00.974Z,976.31
2023-04-15T00:02:01.060Z,976.31
2023-04-15T00:03:01.031Z,976.30
2023-04-15T00:04:00.980Z,976.29
2023-04-15T00:05:00.934Z,976.28
2023-04-15T00:06:00.879Z,976.28
2023-04-15T00:07:00.870Z,976.26
2023-04-15T00:08:00.881Z,976.26
2023-04-15T00:09:01.356Z,976.26
2023-04-15T00:10:00.860Z,976.26
2023-04-15T00:11:00.861Z,976.26
2023-04-15T00:12:00.848Z,976.26
2023-04-15T00:13:00.845Z,976.25
2023-04-15T00:14:00.813Z,976.25
2023-04-15T00:15:00.818Z,976.25
2023-04-15T00:16:00.797Z,976.24
2023-04-15T00:17:00.881Z,976.24
2023-04-15T00:18:00.800Z,976.23
2023-04-15T00:19:00.992Z,976.22
2023-04-15T00:20:00.731Z,976.22
2023-04-15T00:21:00.743Z,976.22
2023-04-15T00:22:00.761Z,976.22
2023-04-15T00:23:00.726Z,976.22
2023-04-15T00:24:00.738Z,976.22
2023-04-15T00:25:00.720Z,976.21
2023-04-15T00:26:00.699Z,976.19
2023-04-15T00:27:00.702Z,976.18
2023-04-15T00:28:00.666Z,976.17
2023-04-15T00:29:00.862Z,976.17
2023-04-15T00:30:00.637Z,976.16
2023-04-15T00:31:00.672Z,976.14
2023-04-15T00:32:00.624Z,976.12
2023-04-15T00:33:00.682Z,976.10
2023-04-15T00:34:00.610Z,976.08
2023-04-15T00:35:00.589Z,976.07
2023-04-15T00:36:00.601Z,976.06
2023-04-15T00:37:00.598Z,976.05
2023-04-15T00:38:00.618Z,976.04
2023-04-15T00:39:00.851Z,976.04
2023-04-15T00:40:00.574Z,976.04
2023-04-15T00:41:00.562Z,976.04
2023-04-15T00:42:00.536Z,976.04
2023-04-15T00:43:00.533Z,976.04
2023-04-15T00:44:00.536Z,976.02
2023-04-15T00:45:00.525Z,976.01
2023-04-15T00:46:00.569Z,975.99
2023-04-15T00:47:00.467Z,975.99
2023-04-15T00:48:00.606Z,975.98
2023-04-15T00:49:00.702Z,975.99
2023-04-15T00:50:00.495Z,975.99
2023-04-15T00:51:00.437Z,976.00
2023-04-15T00:52:00.435Z,976.00
2023-04-15T00:53:00.461Z,975.99
2023-04-15T00:54:00.427Z,975.99
2023-04-15T00:55:00.445Z,975.99
2023-04-15T00:56:00.390Z,976.00
2023-04-15T00:57:00.385Z,976.00
2023-04-15T00:58:00.372Z,976.00
2023-04-15T00:59:00.594Z,976.01
2023-04-15T01:00:00.414Z,976.01
2023-04-15T01:01:00.426Z,976.01
2023-04-15T01:02:00.476Z,976.02
2023-04-15T01:03:00.691Z,976.03
2023-04-15T01:04:00.513Z,976.04
2023-04-15T01:05:00.308Z,976.04
2023-04-15T01:06:02.113Z,976.03
2023-04-15T01:07:00.322Z,976.04
2023-04-15T01:08:00.257Z,976.04
2023-04-15T01:09:00.513Z,976.04
2023-04-15T01:11:27.808Z,976.05
2023-04-15T01:11:33.177Z,976.05
2023-04-15T01:12:33.214Z,976.05
2023-04-15T01:13:33.138Z,976.05
2023-04-15T01:14:33.123Z,976.04
2023-04-15T01:15:33.104Z,976.04
2023-04-15T01:16:33.119Z,976.03
2023-04-15T01:17:33.113Z,976.03
2023-04-15T01:18:33.094Z,976.03
2023-04-15T01:19:33.068Z,976.03
2023-04-15T01:20:33.064Z,976.02
2023-04-15T01:21:33.055Z,976.01
2023-04-15T01:22:33.039Z,976.00
2023-04-15T01:23:33.075Z,975.99
2023-04-15T01:24:33.036Z,975.98
2023-04-15T01:25:33.036Z,975.97
2023-04-15T01:26:33.006Z,975.97
2023-04-15T01:27:33.012Z,975.96
2023-04-15T01:28:33.030Z,975.95
2023-04-15T01:29:32.983Z,975.95
2023-04-15T01:30:32.988Z,975.95
2023-04-15T01:31:32.993Z,975.94
2023-04-15T01:32:32.995Z,975.94
2023-04-15T01:33:32.951Z,975.94
2023-04-15T01:34:35.522Z,975.93
2023-04-15T01:35:32.939Z,975.92
2023-04-15T01:36:32.902Z,975.93
2023-04-15T01:37:32.879Z,975.93
2023-04-15T01:38:32.886Z,975.92
2023-04-15T01:39:32.946Z,975.91
2023-04-15T01:40:32.875Z,975.89
2023-04-15T01:41:32.869Z,975.88
2023-04-15T01:42:32.869Z,975.86
2023-04-15T01:43:32.850Z,975.85
2023-04-15T01:44:32.871Z,975.85
2023-04-15T01:45:32.835Z,975.84
2023-04-15T01:46:32.836Z,975.82
2023-04-15T01:47:32.801Z,975.82
2023-04-15T01:48:32.789Z,975.83
2023-04-15T01:49:32.767Z,975.82
2023-04-15T01:50:32.794Z,975.81
2023-04-15T01:51:32.765Z,975.81
2023-04-15T01:52:32.749Z,975.80
2023-04-15T01:53:32.726Z,975.80
2023-04-15T01:54:32.729Z,975.79
2023-04-15T01:55:32.731Z,975.79
2023-04-15T01:56:32.762Z,975.77
2023-04-15T01:57:32.719Z,975.76
2023-04-15T01:58:32.710Z,975.75
2023-04-15T01:59:32.675Z,975.74
2023-04-15T02:00:32.739Z,975.74
2023-04-15T02:01:32.698Z,975.75
2023-04-15T02:02:32.740Z,975.75
2023-04-15T02:03:32.746Z,975.74
2023-04-15T02:04:32.636Z,975.73
2023-04-15T02:05:32.625Z,975.73
2023-04-15T02:06:32.635Z,975.72
2023-04-15T02:07:32.612Z,975.71
2023-04-15T02:08:32.639Z,975.71
2023-04-15T02:09:32.596Z,975.72
2023-04-15T02:10:32.600Z,975.72
2023-04-15T02:11:32.559Z,975.72
2023-04-15T02:12:32.554Z,975.72
2023-04-15T02:13:32.576Z,975.72
2023-04-15T02:14:32.553Z,975.72
2023-04-15T02:15:32.508Z,975.72
2023-04-15T02:16:32.555Z,975.71
2023-04-15T02:17:32.521Z,975.71
2023-04-15T02:18:32.492Z,975.70
2023-04-15T02:19:32.508Z,975.70
2023-04-15T02:20:32.515Z,975.70
2023-04-15T02:21:32.456Z,975.68
2023-04-15T02:22:32.466Z,975.66
2023-04-15T02:23:32.466Z,975.64
2023-04-15T02:24:32.453Z,975.63
2023-04-15T02:25:32.427Z,975.61
2023-04-15T02:26:32.446Z,975.60
2023-04-15T02:27:32.393Z,975.59
2023-04-15T02:28:32.387Z,975.59
2023-04-15T02:29:32.395Z,975.58
2023-04-15T02:30:32.394Z,975.59
2023-04-15T02:31:32.410Z,975.60
2023-04-15T02:32:32.374Z,975.62
2023-04-15T02:33:32.368Z,975.61
2023-04-15T02:34:32.343Z,975.61
2023-04-15T02:35:32.328Z,975.61
2023-04-15T02:36:32.316Z,975.62
2023-04-15T02:37:32.294Z,975.63
2023-04-15T02:38:32.291Z,975.60
2023-04-15T02:39:32.266Z,975.57
2023-04-15T02:40:32.299Z,975.56
2023-04-15T02:41:32.268Z,975.56
2023-04-15T02:42:32.246Z,975.56
2023-04-15T02:43:32.236Z,975.55
2023-04-15T02:44:32.250Z,975.55
2023-04-15T02:45:32.231Z,975.55
2023-04-15T02:46:32.332Z,975.56
2023-04-15T02:47:32.205Z,975.57
2023-04-15T02:48:32.198Z,975.59
2023-04-15T02:49:32.193Z,975.59
2023-04-15T02:50:32.181Z,975.60
2023-04-15T02:51:32.172Z,975.60
2023-04-15T02:52:32.160Z,975.58
2023-04-15T02:53:32.139Z,975.57
2023-04-15T02:54:32.130Z,975.56
2023-04-15T02:55:32.106Z,975.55
2023-04-15T02:56:32.112Z,975.55
2023-04-15T02:57:32.131Z,975.55
2023-04-15T02:58:32.095Z,975.56
2023-04-15T02:59:32.094Z,975.58
2023-04-15T03:00:32.072Z,975.58
2023-04-15T03:01:32.095Z,975.58
2023-04-15T03:02:32.144Z,975.58
2023-04-15T03:03:32.153Z,975.57
2023-04-15T03:04:32.031Z,975.57
2023-04-15T03:05:32.017Z,975.59
2023-04-15T03:06:31.998Z,975.58
2023-04-15T03:07:32.019Z,975.56
2023-04-15T03:08:31.986Z,975.56
2023-04-15T03:09:31.991Z,975.56
2023-04-15T03:10:31.981Z,975.55
2023-04-15T03:11:31.951Z,975.55
2023-04-15T03:12:31.955Z,975.55
2023-04-15T03:13:31.977Z,975.55
2023-04-15T03:14:31.953Z,975.53
2023-04-15T03:15:31.934Z,975.51
2023-04-15T03:16:31.892Z,975.51
2023-04-15T03:17:31.931Z,975.51
2023-04-15T03:18:31.888Z,975.50
2023-04-15T03:19:31.916Z,975.50
2023-04-15T03:20:31.944Z,975.49
2023-04-15T03:21:31.848Z,975.50
2023-04-15T03:22:31.839Z,975.49
2023-04-15T03:23:31.833Z,975.49
2023-04-15T03:24:31.831Z,975.48
2023-04-15T03:25:31.859Z,975.46
2023-04-15T03:26:31.814Z,975.45
2023-04-15T03:27:31.822Z,975.45
2023-04-15T03:28:31.800Z,975.44
2023-04-15T03:29:31.789Z,975.42
2023-04-15T03:30:31.777Z,975.41
2023-04-15T03:31:31.830Z,975.41
2023-04-15T03:32:31.794Z,975.40
2023-04-15T03:33:31.748Z,975.40
2023-04-15T03:34:31.716Z,975.40
2023-04-15T03:35:31.727Z,975.39
2023-04-15T03:36:31.716Z,975.41
2023-04-15T03:37:31.723Z,975.43
2023-04-15T03:38:31.687Z,975.44
2023-04-15T03:39:31.678Z,975.42
2023-04-15T03:40:31.672Z,975.41
2023-04-15T03:41:31.671Z,975.42
2023-04-15T03:42:31.681Z,975.42
2023-04-15T03:43:31.630Z,975.43
2023-04-15T03:44:31.613Z,975.42
2023-04-15T03:45:31.620Z,975.41
2023-04-15T03:46:31.637Z,975.40
2023-04-15T03:47:31.585Z,975.40
2023-04-15T03:48:31.610Z,975.39
2023-04-15T03:49:31.589Z,975.39
2023-04-15T03:50:31.579Z,975.41
2023-04-15T03:51:31.578Z,975.42
2023-04-15T03:52:31.570Z,975.42
2023-04-15T03:53:31.583Z,975.42
2023-04-15T03:54:31.533Z,975.42
2023-04-15T03:55:31.523Z,975.41
2023-04-15T03:56:31.507Z,975.40
2023-04-15T03:57:31.537Z,975.41
2023-04-15T03:58:31.482Z,975.42
2023-04-15T03:59:31.504Z,975.42
2023-04-15T04:00:31.466Z,975.42
2023-04-15T04:01:31.489Z,975.42
2023-04-15T04:02:31.595Z,975.42
2023-04-15T04:03:31.491Z,975.41
2023-04-15T04:04:31.580Z,975.40
2023-04-15T04:05:31.431Z,975.40
2023-04-15T04:06:31.416Z,975.40
2023-04-15T04:07:31.394Z,975.38
2023-04-15T04:08:31.379Z,975.38
2023-04-15T04:09:31.384Z,975.39
2023-04-15T04:10:31.415Z,975.38
2023-04-15T04:11:31.353Z,975.37
2023-04-15T04:12:31.351Z,975.37
2023-04-15T04:13:31.331Z,975.36
2023-04-15T04:14:31.316Z,975.34
2023-04-15T04:15:31.380Z,975.34
2023-04-15T04:16:31.346Z,975.34
2023-04-15T04:17:31.325Z,975.37
2023-04-15T04:18:31.271Z,975.38
2023-04-15T04:19:31.286Z,975.39
2023-04-15T04:20:31.264Z,975.40
2023-04-15T04:21:31.256Z,975.39
2023-04-15T04:22:31.638Z,975.41
2023-04-15T04:23:31.246Z,975.40
2023-04-15T04:24:31.242Z,975.42
2023-04-15T04:25:31.219Z,975.44
2023-04-15T04:26:31.224Z,975.46
2023-04-15T04:27:31.179Z,975.45
2023-04-15T04:28:31.234Z,975.46
2023-04-15T04:29:31.169Z,975.46
2023-04-15T04:30:31.175Z,975.47
2023-04-15T04:31:31.175Z,975.48
2023-04-15T04:32:31.155Z,975.48
2023-04-15T04:33:31.146Z,975.48
2023-04-15T04:34:31.162Z,975.49
2023-04-15T04:35:31.119Z,975.50
2023-04-15T04:36:31.109Z,975.50
2023-04-15T04:37:31.085Z,975.51
2023-04-15T04:38:31.100Z,975.51
2023-04-15T04:39:31.114Z,975.51
2023-04-15T04:40:31.109Z,975.52
2023-04-15T04:41:31.048Z,975.50
2023-04-15T04:42:31.052Z,975.49
2023-04-15T04:43:31.014Z,975.49
2023-04-15T04:44:31.046Z,975.50
2023-04-15T04:45:31.038Z,975.50
2023-04-15T04:46:31.011Z,975.50
2023-04-15T04:47:30.986Z,975.50
2023-04-15T04:48:30.986Z,975.51
2023-04-15T04:49:31.005Z,975.52
2023-04-15T04:50:30.962Z,975.52
2023-04-15T04:51:30.969Z,975.52
2023-04-15T04:52:30.951Z,975.51
2023-04-15T04:53:30.939Z,975.53
2023-04-15T04:54:30.927Z,975.52
2023-04-15T04:55:30.960Z,975.53
2023-04-15T04:56:30.902Z,975.55
2023-04-15T04:57:30.894Z,975.54
2023-04-15T04:58:30.886Z,975.55
2023-04-15T04:59:30.855Z,975.55
2023-04-15T05:00:30.867Z,975.54
2023-04-15T05:01:30.867Z,975.51
2023-04-15T05:02:30.898Z,975.49
2023-04-15T05:03:30.947Z,975.50
2023-04-15T05:04:30.853Z,975.48
2023-04-15T05:05:30.794Z,975.49
2023-04-15T05:06:30.825Z,975.49
2023-04-15T05:07:30.807Z,975.46
2023-04-15T05:08:30.794Z,975.47
2023-04-15T05:09:30.776Z,975.46
2023-04-15T05:10:30.777Z,975.46
2023-04-15T05:11:30.777Z,975.45
2023-04-15T05:12:30.747Z,975.44
2023-04-15T05:13:30.732Z,975.45
2023-04-15T05:14:30.712Z,975.46
2023-04-15T05:15:30.750Z,975.45
2023-04-15T05:16:30.723Z,975.44
2023-04-15T05:17:30.790Z,975.44
2023-04-15T05:18:30.691Z,975.44
2023-04-15T05:19:30.677Z,975.44
2023-04-15T05:20:30.670Z,975.45
2023-04-15T05:21:30.646Z,975.45
2023-04-15T05:22:30.656Z,975.45
2023-04-15T05:23:30.643Z,975.45
2023-04-15T05:24:30.642Z,975.46
2023-04-15T05:25:30.598Z,975.48
2023-04-15T05:26:30.601Z,975.50
2023-04-15T05:27:30.584Z,975.51
2023-04-15T05:28:30.633Z,975.51
2023-04-15T05:29:30.584Z,975.51
2023-04-15T05:30:30.556Z,975.52
2023-04-15T05:31:30.620Z,975.53
2023-04-15T05:32:30.580Z,975.57
2023-04-15T05:33:30.542Z,975.59
2023-04-15T05:34:30.547Z,975.59
2023-04-15T05:35:30.511Z,975.62
2023-04-15T05:36:30.503Z,975.63
2023-04-15T05:37:30.495Z,975.62
2023-04-15T05:38:30.484Z,975.63
2023-04-15T05:39:30.513Z,975.63
2023-04-15T05:40:30.465Z,975.62
2023-04-15T05:41:30.608Z,975.61
2023-04-15T05:42:30.466Z,975.61
2023-04-15T05:43:30.461Z,975.59
2023-04-15T05:44:30.429Z,975.57
2023-04-15T05:45:30.409Z,975.57
2023-04-15T05:46:30.420Z,975.56
2023-04-15T05:47:30.451Z,975.55
2023-04-15T05:48:30.384Z,975.55
2023-04-15T05:49:30.416Z,975.57
2023-04-15T05:50:30.378Z,975.58
2023-04-15T05:51:30.364Z,975.58
2023-04-15T05:52:30.342Z,975.59
2023-04-15T05:53:30.336Z,975.60
2023-04-15T05:54:30.349Z,975.61
2023-04-15T05:55:30.310Z,975.62
2023-04-15T05:56:30.284Z,975.61
2023-04-15T05:57:30.295Z,975.60
2023-04-15T05:58:30.283Z,975.59
2023-04-15T05:59:30.294Z,975.61
2023-04-15T06:00:30.291Z,975.62
2023-04-15T06:01:30.269Z,975.64
2023-04-15T06:02:30.263Z,975.64
2023-04-15T06:03:30.323Z,975.66
2023-04-15T06:04:30.390Z,975.65
2023-04-15T06:05:30.244Z,975.64
2023-04-15T06:06:30.214Z,975.63
2023-04-15T06:07:30.200Z,975.61
2023-04-15T06:08:30.193Z,975.61
2023-04-15T06:09:30.187Z,975.59
2023-04-15T06:10:30.170Z,975.59
2023-04-15T06:11:30.157Z,975.59
2023-04-15T06:12:30.127Z,975.59
2023-04-15T06:13:30.118Z,975.58
2023-04-15T06:14:30.103Z,975.58
2023-04-15T06:15:30.109Z,975.58
2023-04-15T06:16:30.149Z,975.58
2023-04-15T06:17:30.124Z,975.58
2023-04-15T06:18:30.083Z,975.60
2023-04-15T06:19:30.062Z,975.62
2023-04-15T06:20:30.064Z,975.63
2023-04-15T06:21:30.080Z,975.65
2023-04-15T06:22:30.034Z,975.66
2023-04-15T06:23:30.032Z,975.67
2023-04-15T06:24:30.016Z,975.70
2023-04-15T06:25:30.048Z,975.71
2023-04-15T06:26:29.991Z,975.70
2023-04-15T06:27:30.608Z,975.69
2023-04-15T06:28:29.976Z,975.68
2023-04-15T06:29:29.970Z,975.66
2023-04-15T06:30:29.973Z,975.65
2023-04-15T06:31:30.025Z,975.65
2023-04-15T06:32:29.979Z,975.65
2023-04-15T06:33:29.953Z,975.64
2023-04-15T06:34:29.916Z,975.64
2023-04-15T06:35:29.944Z,975.65
2023-04-15T06:36:29.894Z,975.67
2023-04-15T06:37:29.875Z,975.69
2023-04-15T06:38:29.892Z,975.69
2023-04-15T06:39:29.860Z,975.68
2023-04-15T06:40:29.841Z,975.69
2023-04-15T06:41:29.849Z,975.68
2023-04-15T06:42:29.832Z,975.68
2023-04-15T06:43:29.870Z,975.68
2023-04-15T06:44:30.787Z,975.67
2023-04-15T06:45:29.860Z,975.68
2023-04-15T06:46:29.866Z,975.67
2023-04-15T06:47:29.833Z,975.67
2023-04-15T06:48:29.783Z,975.68
2023-04-15T06:49:29.763Z,975.66
2023-04-15T06:50:29.754Z,975.66
2023-04-15T06:51:29.755Z,975.67
2023-04-15T06:52:29.769Z,975.67
2023-04-15T06:53:29.724Z,975.67
2023-04-15T06:54:29.701Z,975.67
2023-04-15T06:55:29.705Z,975.67
2023-04-15T06:56:29.671Z,975.67
2023-04-15T06:57:29.709Z,975.67
2023-04-15T06:58:29.686Z,975.69
2023-04-15T06:59:29.666Z,975.70
2023-04-15T07:00:29.668Z,975.72
2023-04-15T07:01:29.805Z,975.73
2023-04-15T07:02:29.783Z,975.74
2023-04-15T07:03:31.448Z,975.74
2023-04-15T07:04:29.700Z,975.75
2023-04-15T07:05:29.588Z,975.77
2023-04-15T07:06:29.601Z,975.77
2023-04-15T07:07:29.603Z,975.78
2023-04-15T07:08:29.561Z,975.78
2023-04-15T07:09:29.609Z,975.79
2023-04-15T07:10:29.537Z,975.77
2023-04-15T07:11:29.551Z,975.77
2023-04-15T07:12:29.533Z,975.77
2023-04-15T07:13:29.546Z,975.77
2023-04-15T07:14:29.531Z,975.78
2023-04-15T07:15:29.498Z,975.78
2023-04-15T07:16:30.039Z,975.78
2023-04-15T07:17:29.532Z,975.77
2023-04-15T07:18:29.468Z,975.76
2023-04-15T07:19:29.504Z,975.76
2023-04-15T07:20:29.459Z,975.76
2023-04-15T07:21:29.445Z,975.74
2023-04-15T07:22:29.456Z,975.74
2023-04-15T07:23:29.502Z,975.75
2023-04-15T07:24:29.400Z,975.77
2023-04-15T07:25:29.406Z,975.77
2023-04-15T07:26:29.375Z,975.77
2023-04-15T07:27:29.383Z,975.78
2023-04-15T07:28:29.366Z,975.78
2023-04-15T07:29:29.370Z,975.79
2023-04-15T07:30:29.343Z,975.79
2023-04-15T07:31:29.458Z,975.79
2023-04-15T07:32:29.374Z,975.80
2023-04-15T07:33:29.328Z,975.81
2023-04-15T07:34:30.811Z,975.80
2023-04-15T07:35:29.296Z,975.80
2023-04-15T07:36:29.293Z,975.80
2023-04-15T07:37:29.272Z,975.80
2023-04-15T07:38:29.270Z,975.80
2023-04-15T07:39:29.264Z,975.81
2023-04-15T07:40:29.300Z,975.81
2023-04-15T07:41:29.249Z,975.81
2023-04-15T07:42:29.262Z,975.81
2023-04-15T07:43:29.263Z,975.80
2023-04-15T07:44:29.199Z,975.82
2023-04-15T07:45:29.246Z,975.84
2023-04-15T07:46:29.220Z,975.86
2023-04-15T07:47:29.201Z,975.88
2023-04-15T07:48:29.173Z,975.89
2023-04-15T07:49:29.154Z,975.91
2023-04-15T07:50:29.158Z,975.92
2023-04-15T07:51:29.170Z,975.93
2023-04-15T07:52:29.136Z,975.94
2023-04-15T07:53:29.118Z,975.95
2023-04-15T07:54:29.103Z,975.96
2023-04-15T07:55:29.110Z,975.98
2023-04-15T07:56:29.125Z,975.98
2023-04-15T07:57:29.087Z,975.98
2023-04-15T07:58:29.079Z,975.98
2023-04-15T07:59:29.065Z,975.97
2023-04-15T08:00:29.060Z,975.97
2023-04-15T08:01:29.046Z,975.99
2023-04-15T08:02:29.193Z,976.00
2023-04-15T08:03:29.153Z,976.01
2023-04-15T08:04:29.155Z,976.02
2023-04-15T08:05:29.009Z,976.02
2023-04-15T08:06:28.980Z,976.04
2023-04-15T08:07:28.975Z,976.04
2023-04-15T08:08:28.982Z,976.05
2023-04-15T08:09:28.959Z,976.07
2023-04-15T08:10:28.961Z,976.09
2023-04-15T08:11:28.957Z,976.11
2023-04-15T08:12:28.927Z,976.13
2023-04-15T08:13:28.951Z,976.14
2023-04-15T08:14:28.925Z,976.14
2023-04-15T08:15:28.911Z,976.16
2023-04-15T08:16:28.919Z,976.17
2023-04-15T08:17:28.889Z,976.18
2023-04-15T08:18:28.863Z,976.21
2023-04-15T08:19:28.909Z,976.22
2023-04-15T08:20:28.846Z,976.24
2023-04-15T08:21:28.837Z,976.25
2023-04-15T08:22:28.830Z,976.28
2023-04-15T08:23:28.830Z,976.27
2023-04-15T08:24:28.834Z,976.27
2023-04-15T08:25:28.807Z,976.28
2023-04-15T08:26:28.817Z,976.27
2023-04-15T08:27:28.775Z,976.28
2023-04-15T08:28:28.778Z,976.28
2023-04-15T08:29:28.775Z,976.29
2023-04-15T08:30:28.751Z,976.28
2023-04-15T08:31:28.810Z,976.27
2023-04-15T08:32:28.732Z,976.30
2023-04-15T08:33:28.741Z,976.31
2023-04-15T08:34:28.711Z,976.32
2023-04-15T08:35:28.709Z,976.29
2023-04-15T08:36:28.713Z,976.27
2023-04-15T08:37:28.685Z,976.27
2023-04-15T08:38:28.680Z,976.25
2023-04-15T08:39:28.656Z,976.26
2023-04-15T08:40:28.647Z,976.26
2023-04-15T08:41:28.648Z,976.23
2023-04-15T08:42:28.660Z,976.24
2023-04-15T08:43:28.618Z,976.23
2023-04-15T08:44:28.602Z,976.27
2023-04-15T08:45:28.595Z,976.22
2023-04-15T08:46:28.609Z,976.22
2023-04-15T08:47:28.644Z,976.24
2023-04-15T08:48:28.553Z,976.23
2023-04-15T08:49:28.561Z,976.25
2023-04-15T08:50:28.545Z,976.25
2023-04-15T08:51:28.550Z,976.28
2023-04-15T08:52:28.572Z,976.25
2023-04-15T08:53:28.521Z,976.26
2023-04-15T08:54:28.505Z,976.26
2023-04-15T08:55:28.487Z,976.26
2023-04-15T08:56:28.489Z,976.26
2023-04-15T08:57:28.469Z,976.25
2023-04-15T08:58:28.470Z,976.25
2023-04-15T08:59:28.465Z,976.28
2023-04-15T09:00:28.457Z,976.23
2023-04-15T09:01:28.478Z,976.23
2023-04-15T09:02:28.506Z,976.25
2023-04-15T09:03:28.544Z,976.24
2023-04-15T09:04:28.403Z,976.25
2023-04-15T09:05:28.395Z,976.24
2023-04-15T09:06:28.381Z,976.26
2023-04-15T09:07:28.366Z,976.29
2023-04-15T09:08:28.355Z,976.28
2023-04-15T09:09:28.387Z,976.28
2023-04-15T09:10:28.340Z,976.27
2023-04-15T09:11:28.337Z,976.26
2023-04-15T09:12:28.330Z,976.25
2023-04-15T09:13:28.314Z,976.22
2023-04-15T09:14:28.305Z,976.22
2023-04-15T09:15:28.318Z,976.22
2023-04-15T09:16:28.327Z,976.21
2023-04-15T09:17:28.304Z,976.22
2023-04-15T09:18:28.280Z,976.23
2023-04-15T09:19:28.263Z,976.24
2023-04-15T09:20:28.276Z,976.24
2023-04-15T09:21:28.237Z,976.26
2023-04-15T09:22:28.233Z,976.26
2023-04-15T09:23:28.204Z,976.29
2023-04-15T09:24:28.186Z,976.29
2023-04-15T09:25:28.202Z,976.30
2023-04-15T09:26:28.196Z,976.31
2023-04-15T09:27:28.191Z,976.32
2023-04-15T09:28:28.167Z,976.32
2023-04-15T09:29:28.187Z,976.33
2023-04-15T09:30:28.144Z,976.32
2023-04-15T09:31:28.233Z,976.32
2023-04-15T09:32:28.125Z,976.33
2023-04-15T09:33:28.106Z,976.36
2023-04-15T09:34:28.086Z,976.38
2023-04-15T09:35:28.140Z,976.39
2023-04-15T09:36:28.084Z,976.43
2023-04-15T09:37:32.304Z,976.44
2023-04-15T09:38:28.051Z,976.46
2023-04-15T09:39:28.057Z,976.47
2023-04-15T09:40:28.050Z,976.47
2023-04-15T09:41:28.029Z,976.45
2023-04-15T09:42:28.060Z,976.44
2023-04-15T09:43:28.008Z,976.42
2023-04-15T09:44:28.031Z,976.41
2023-04-15T09:45:29.693Z,976.41
2023-04-15T09:46:28.014Z,976.42
2023-04-15T09:47:28.019Z,976.43
2023-04-15T09:48:27.948Z,976.43
2023-04-15T09:49:27.965Z,976.43
2023-04-15T09:50:27.954Z,976.43
2023-04-15T09:51:27.910Z,976.44
2023-04-15T09:52:27.931Z,976.45
2023-04-15T09:53:29.762Z,976.47
2023-04-15T09:54:27.892Z,976.47
2023-04-15T09:55:27.950Z,976.46
2023-04-15T09:56:27.878Z,976.46
2023-04-15T09:57:27.880Z,976.48
2023-04-15T09:58:27.867Z,976.46
2023-04-15T09:59:27.841Z,976.46
2023-04-15T10:00:27.828Z,976.45
2023-04-15T10:01:27.924Z,976.45
2023-04-15T10:02:27.856Z,976.46
2023-04-15T10:03:27.939Z,976.46
2023-04-15T10:04:27.899Z,976.46
2023-04-15T10:05:28.676Z,976.48
2023-04-15T10:06:27.811Z,976.48
2023-04-15T10:07:27.767Z,976.47
2023-04-15T10:08:27.774Z,976.50
2023-04-15T10:09:27.756Z,976.50
2023-04-15T10:10:27.788Z,976.53
2023-04-15T10:11:29.166Z,976.54
2023-04-15T10:12:27.718Z,976.55
2023-04-15T10:13:27.700Z,976.55
2023-04-15T10:14:27.702Z,976.55
2023-04-15T10:15:27.684Z,976.54
2023-04-15T10:16:27.876Z,976.55
2023-04-15T10:17:28.460Z,976.54
2023-04-15T10:18:27.656Z,976.55
2023-04-15T10:19:27.662Z,976.56
2023-04-15T10:20:27.655Z,976.58
2023-04-15T10:21:27.636Z,976.61
2023-04-15T10:22:27.671Z,976.62
2023-04-15T10:23:27.619Z,976.64
2023-04-15T10:24:27.611Z,976.64
2023-04-15T10:25:27.615Z,976.63
2023-04-15T10:26:27.585Z,976.62
2023-04-15T10:27:27.558Z,976.63
2023-04-15T10:28:27.572Z,976.62
2023-04-15T10:29:27.532Z,976.63
2023-04-15T10:30:27.538Z,976.64
2023-04-15T10:31:27.590Z,976.65
2023-04-15T10:32:27.549Z,976.67
2023-04-15T10:33:27.507Z,976.69
2023-04-15T10:34:27.506Z,976.71
2023-04-15T10:35:27.487Z,976.73
2023-04-15T10:36:27.481Z,976.73
2023-04-15T10:37:27.471Z,976.73
2023-04-15T10:38:27.455Z,976.74
2023-04-15T10:39:27.436Z,976.74
2023-04-15T10:40:27.467Z,976.75
2023-04-15T10:41:27.414Z,976.76
2023-04-15T10:42:27.462Z,976.77
2023-04-15T10:43:27.415Z,976.78
2023-04-15T10:44:27.398Z,976.79
2023-04-15T10:45:27.395Z,976.81
2023-04-15T10:46:27.472Z,976.82
2023-04-15T10:47:27.387Z,976.83
2023-04-15T10:48:27.388Z,976.83
2023-04-15T10:49:27.339Z,976.84
2023-04-15T10:50:27.362Z,976.85
2023-04-15T10:51:27.310Z,976.86
2023-04-15T10:52:27.310Z,976.87
2023-04-15T10:53:27.299Z,976.88
2023-04-15T10:54:27.287Z,976.88
2023-04-15T10:55:27.307Z,976.90
2023-04-15T10:56:27.271Z,976.89
2023-04-15T10:57:27.257Z,976.89
2023-04-15T10:58:27.269Z,976.88
2023-04-15T10:59:27.252Z,976.89
2023-04-15T11:00:27.235Z,976.89
2023-04-15T11:01:27.268Z,976.90
2023-04-15T11:02:27.392Z,976.90
2023-04-15T11:03:27.377Z,976.89
2023-04-15T11:04:27.365Z,976.89
2023-04-15T11:05:27.196Z,976.88
2023-04-15T11:06:27.201Z,976.89
2023-04-15T11:07:27.179Z,976.91
2023-04-15T11:08:27.158Z,976.93
2023-04-15T11:09:27.155Z,976.94
2023-04-15T11:10:27.130Z,976.95
2023-04-15T11:11:27.129Z,976.95
2023-04-15T11:12:27.101Z,976.95
2023-04-15T11:13:27.160Z,976.95
2023-04-15T11:14:27.077Z,976.96
2023-04-15T11:15:27.076Z,976.96
2023-04-15T11:16:27.108Z,976.97
2023-04-15T11:17:27.152Z,976.98
2023-04-15T11:18:27.081Z,977.00
2023-04-15T11:19:27.036Z,977.00
2023-04-15T11:20:27.096Z,977.02
2023-04-15T11:21:27.021Z,977.04
2023-04-15T11:22:27.008Z,977.04
2023-04-15T11:23:27.009Z,977.04
2023-04-15T11:24:27.062Z,977.05
2023-04-15T11:25:27.013Z,977.06
2023-04-15T11:26:26.953Z,977.07
2023-04-15T11:27:26.953Z,977.09
2023-04-15T11:28:26.928Z,977.11
2023-04-15T11:29:26.969Z,977.13
2023-04-15T11:30:26.924Z,977.13
2023-04-15T11:31:26.937Z,977.13
2023-04-15T11:32:26.949Z,977.13
2023-04-15T11:33:26.902Z,977.14
2023-04-15T11:34:26.925Z,977.16
2023-04-15T11:35:26.878Z,977.17
2023-04-15T11:36:26.879Z,977.18
2023-04-15T11:37:26.851Z,977.19
2023-04-15T11:38:26.847Z,977.19
2023-04-15T11:39:26.838Z,977.17
2023-04-15T11:40:27.131Z,977.18
2023-04-15T11:41:26.865Z,977.19
2023-04-15T11:42:31.447Z,977.19
2023-04-15T11:43:26.809Z,977.20
2023-04-15T11:44:26.788Z,977.20
2023-04-15T11:45:26.829Z,977.20
2023-04-15T11:46:26.816Z,977.20
2023-04-15T11:47:26.783Z,977.21
2023-04-15T11:48:26.768Z,977.21
2023-04-15T11:49:26.745Z,977.22
2023-04-15T11:50:26.741Z,977.22
2023-04-15T11:51:26.720Z,977.24
2023-04-15T11:52:26.735Z,977.24
2023-04-15T11:53:26.698Z,977.25
2023-04-15T11:54:26.698Z,977.24
2023-04-15T11:55:26.675Z,977.25
2023-04-15T11:56:26.653Z,977.26
2023-04-15T11:57:26.678Z,977.27
2023-04-15T11:58:26.632Z,977.28
2023-04-15T11:59:35.666Z,977.28
2023-04-15T12:00:26.615Z,977.29
2023-04-15T12:01:26.612Z,977.29
2023-04-15T12:02:26.787Z,977.30
2023-04-15T12:03:26.755Z,977.31
2023-04-15T12:04:26.802Z,977.33
2023-04-15T12:05:26.593Z,977.34
2023-04-15T12:06:26.559Z,977.36
2023-04-15T12:07:26.545Z,977.37
2023-04-15T12:08:26.523Z,977.38
2023-04-15T12:09:26.519Z,977.38
2023-04-15T12:10:26.515Z,977.39
2023-04-15T12:11:26.537Z,977.39
2023-04-15T12:12:26.503Z,977.40
2023-04-15T12:13:26.496Z,977.41
2023-04-15T12:14:26.519Z,977.42
2023-04-15T12:15:26.462Z,977.43
2023-04-15T12:16:26.462Z,977.42
2023-04-15T12:17:26.491Z,977.44
2023-04-15T12:18:26.445Z,977.45
2023-04-15T12:19:26.432Z,977.46
2023-04-15T12:20:26.421Z,977.48
2023-04-15T12:21:26.405Z,977.49
2023-04-15T12:22:26.457Z,977.50
2023-04-15T12:23:26.381Z,977.50
2023-04-15T12:24:26.367Z,977.51
2023-04-15T12:25:26.375Z,977.49
2023-04-15T12:26:26.357Z,977.49
2023-04-15T12:27:27.654Z,977.50
2023-04-15T12:28:26.341Z,977.51